sensor_id;sensor_type;location;lat;lon;timestamp;pressure;altitude;pressure_sealevel;temperature;humidity
64516;BME280;50891;37.380;-122.076;2022-10-31T00:01:29;101282.13;;;30.65;34.23
64516;BME280;50891;37.380;-122.076;2022-10-31T00:03:56;101285.88;;;30.64;33.62
64516;BME280;50891;37.380;-122.076;2022-10-31T00:06:23;101282.13;;;30.65;33.84
64516;BME280;50891;37.380;-122.076;2022-10-31T00:08:54;101282.13;;;30.65;33.72
64516;BME280;50891;37.380;-122.076;2022-10-31T00:11:21;101283.13;;;30.59;33.84
64516;BME280;50891;37.380;-122.076;2022-10-31T00:13:47;101279.53;;;30.54;33.76
64516;BME280;50891;37.380;-122.076;2022-10-31T00:16:19;101272.97;;;30.50;33.65
64516;BME280;50891;37.380;-122.076;2022-10-31T00:18:49;101274.28;;;30.47;33.44
64516;BME280;50891;37.380;-122.076;2022-10-31T00:21:16;101277.56;;;30.49;33.11
64516;BME280;50891;37.380;-122.076;2022-10-31T00:23:45;101277.56;;;30.49;33.29
64516;BME280;50891;37.380;-122.076;2022-10-31T00:26:11;101272.63;;;30.46;33.50
64516;BME280;50891;37.380;-122.076;2022-10-31T00:28:37;101279.16;;;30.45;33.46
64516;BME280;50891;37.380;-122.076;2022-10-31T00:31:06;101279.91;;;30.40;33.26
64516;BME280;50891;37.380;-122.076;2022-10-31T00:33:34;101286.16;;;30.41;33.17
64516;BME280;50891;37.380;-122.076;2022-10-31T00:36:03;101282.78;;;30.34;33.30
64516;BME280;50891;37.380;-122.076;2022-10-31T00:38:29;101293.59;;;30.29;33.31
64516;BME280;50891;37.380;-122.076;2022-10-31T00:40:55;101285.25;;;30.18;33.17
64516;BME280;50891;37.380;-122.076;2022-10-31T00:43:22;101282.81;;;30.17;33.63
64516;BME280;50891;37.380;-122.076;2022-10-31T00:45:48;101277.06;;;30.13;33.27
64516;BME280;50891;37.380;-122.076;2022-10-31T00:48:14;101286.69;;;30.04;33.45
64516;BME280;50891;37.380;-122.076;2022-10-31T00:50:40;101280.13;;;30.00;33.22
64516;BME280;50891;37.380;-122.076;2022-10-31T00:53:06;101280.03;;;29.95;33.28
64516;BME280;50891;37.380;-122.076;2022-10-31T00:55:33;101287.59;;;29.93;33.45
64516;BME280;50891;37.380;-122.076;2022-10-31T00:57:59;101285.31;;;29.85;33.41
64516;BME280;50891;37.380;-122.076;2022-10-31T01:00:25;101297.22;;;29.83;33.57
64516;BME280;50891;37.380;-122.076;2022-10-31T01:02:52;101290.41;;;29.81;33.44
64516;BME280;50891;37.380;-122.076;2022-10-31T01:05:18;101295.44;;;29.72;33.65
64516;BME280;50891;37.380;-122.076;2022-10-31T01:07:44;101290.75;;;29.68;33.42
64516;BME280;50891;37.380;-122.076;2022-10-31T01:10:11;101297.00;;;29.68;33.52
64516;BME280;50891;37.380;-122.076;2022-10-31T01:15:05;101302.78;;;29.60;33.52
64516;BME280;50891;37.380;-122.076;2022-10-31T01:17:31;101292.94;;;29.54;33.71
64516;BME280;50891;37.380;-122.076;2022-10-31T01:19:57;101301.66;;;29.56;33.17
64516;BME280;50891;37.380;-122.076;2022-10-31T01:22:23;101297.53;;;29.53;33.43
64516;BME280;50891;37.380;-122.076;2022-10-31T01:24:49;101302.88;;;29.48;33.29
64516;BME280;50891;37.380;-122.076;2022-10-31T01:27:16;101302.53;;;29.45;33.20
64516;BME280;50891;37.380;-122.076;2022-10-31T01:29:42;101303.50;;;29.38;33.27
64516;BME280;50891;37.380;-122.076;2022-10-31T01:32:08;101305.91;;;29.35;33.29
64516;BME280;50891;37.380;-122.076;2022-10-31T01:34:34;101316.41;;;29.31;33.21
64516;BME280;50891;37.380;-122.076;2022-10-31T01:37:00;101312.78;;;29.26;33.47
64516;BME280;50891;37.380;-122.076;2022-10-31T01:39:26;101312.44;;;29.22;33.80
64516;BME280;50891;37.380;-122.076;2022-10-31T01:41:53;101315.38;;;29.20;33.63
64516;BME280;50891;37.380;-122.076;2022-10-31T01:47:06;101320.47;;;29.17;34.08
64516;BME280;50891;37.380;-122.076;2022-10-31T01:50:10;101322.81;;;29.13;34.07
64516;BME280;50891;37.380;-122.076;2022-10-31T01:52:42;101322.81;;;29.13;34.19
64516;BME280;50891;37.380;-122.076;2022-10-31T01:55:15;101328.50;;;29.12;34.07
64516;BME280;50891;37.380;-122.076;2022-10-31T01:57:46;101322.25;;;29.11;34.02
64516;BME280;50891;37.380;-122.076;2022-10-31T02:00:14;101325.66;;;29.07;34.22
64516;BME280;50891;37.380;-122.076;2022-10-31T02:02:41;101329.06;;;29.02;34.32
64516;BME280;50891;37.380;-122.076;2022-10-31T02:05:12;101336.38;;;29.02;34.29
64516;BME280;50891;37.380;-122.076;2022-10-31T02:08:30;101336.66;;;29.00;34.37
64516;BME280;50891;37.380;-122.076;2022-10-31T02:10:32;101346.81;;;28.93;34.63
64516;BME280;50891;37.380;-122.076;2022-10-31T02:13:01;101342.66;;;28.90;34.72
64516;BME280;50891;37.380;-122.076;2022-10-31T02:15:30;101341.53;;;28.86;34.72
64516;BME280;50891;37.380;-122.076;2022-10-31T02:17:57;101336.56;;;28.83;34.61
64516;BME280;50891;37.380;-122.076;2022-10-31T02:20:25;101330.56;;;28.81;34.75
64516;BME280;50891;37.380;-122.076;2022-10-31T02:31:00;101336.47;;;28.78;34.95
64516;BME280;50891;37.380;-122.076;2022-10-31T02:36:20;101342.00;;;28.71;34.86
64516;BME280;50891;37.380;-122.076;2022-10-31T02:39:15;101354.72;;;28.71;34.74
64516;BME280;50891;37.380;-122.076;2022-10-31T02:42:07;101354.13;;;28.69;34.76
64516;BME280;50891;37.380;-122.076;2022-10-31T02:44:39;101351.91;;;28.66;34.86
64516;BME280;50891;37.380;-122.076;2022-10-31T02:47:16;101355.22;;;28.68;34.81
64516;BME280;50891;37.380;-122.076;2022-10-31T02:50:03;101354.84;;;28.64;34.76
64516;BME280;50891;37.380;-122.076;2022-10-31T02:52:32;101353.22;;;28.63;34.60
64516;BME280;50891;37.380;-122.076;2022-10-31T02:54:58;101350.75;;;28.62;34.56
64516;BME280;50891;37.380;-122.076;2022-10-31T02:57:35;101349.09;;;28.61;34.61
64516;BME280;50891;37.380;-122.076;2022-10-31T03:00:07;101343.09;;;28.58;34.67
64516;BME280;50891;37.380;-122.076;2022-10-31T03:15:44;101358.38;;;28.29;35.09
64516;BME280;50891;37.380;-122.076;2022-10-31T03:18:24;101360.97;;;28.24;34.85
64516;BME280;50891;37.380;-122.076;2022-10-31T03:20:55;101356.38;;;28.25;35.05
64516;BME280;50891;37.380;-122.076;2022-10-31T03:23:23;101353.34;;;28.21;35.24
64516;BME280;50891;37.380;-122.076;2022-10-31T03:25:52;101354.84;;;28.17;34.95
64516;BME280;50891;37.380;-122.076;2022-10-31T03:28:29;101351.22;;;28.11;35.16
64516;BME280;50891;37.380;-122.076;2022-10-31T03:30:57;101353.56;;;28.08;35.28
64516;BME280;50891;37.380;-122.076;2022-10-31T03:33:28;101355.94;;;28.04;35.38
64516;BME280;50891;37.380;-122.076;2022-10-31T03:35:57;101356.63;;;28.00;35.34
64516;BME280;50891;37.380;-122.076;2022-10-31T03:38:27;101356.84;;;27.98;35.43
64516;BME280;50891;37.380;-122.076;2022-10-31T03:40:56;101363.78;;;27.94;35.30
64516;BME280;50891;37.380;-122.076;2022-10-31T03:43:28;101355.31;;;27.90;35.21
64516;BME280;50891;37.380;-122.076;2022-10-31T03:45:56;101363.06;;;27.87;35.10
64516;BME280;50891;37.380;-122.076;2022-10-31T03:48:23;101369.94;;;27.83;35.15
64516;BME280;50891;37.380;-122.076;2022-10-31T03:51:02;101374.41;;;27.77;35.29
64516;BME280;50891;37.380;-122.076;2022-10-31T03:53:45;101379.91;;;27.70;35.47
64516;BME280;50891;37.380;-122.076;2022-10-31T03:56:45;101372.28;;;27.67;35.41
64516;BME280;50891;37.380;-122.076;2022-10-31T03:59:38;101378.13;;;27.64;35.36
64516;BME280;50891;37.380;-122.076;2022-10-31T04:02:06;101376.50;;;27.63;35.43
64516;BME280;50891;37.380;-122.076;2022-10-31T04:04:34;101376.09;;;27.60;35.42
64516;BME280;50891;37.380;-122.076;2022-10-31T04:07:03;101374.09;;;27.55;35.58
64516;BME280;50891;37.380;-122.076;2022-10-31T04:09:33;101365.41;;;27.53;35.53
64516;BME280;50891;37.380;-122.076;2022-10-31T04:12:04;101364.81;;;27.51;35.62
64516;BME280;50891;37.380;-122.076;2022-10-31T04:14:36;101367.38;;;27.46;36.22
64516;BME280;50891;37.380;-122.076;2022-10-31T04:17:07;101374.66;;;27.45;35.91
64516;BME280;50891;37.380;-122.076;2022-10-31T04:19:34;101372.19;;;27.44;36.04
64516;BME280;50891;37.380;-122.076;2022-10-31T04:22:01;101371.22;;;27.38;36.15
64516;BME280;50891;37.380;-122.076;2022-10-31T04:24:27;101373.56;;;27.35;36.12
64516;BME280;50891;37.380;-122.076;2022-10-31T04:26:53;101366.50;;;27.33;36.11
64516;BME280;50891;37.380;-122.076;2022-10-31T04:29:19;101365.47;;;27.35;36.06
64516;BME280;50891;37.380;-122.076;2022-10-31T04:31:45;101369.22;;;27.33;35.92
64516;BME280;50891;37.380;-122.076;2022-10-31T04:34:12;101358.41;;;27.33;36.17
64516;BME280;50891;37.380;-122.076;2022-10-31T04:36:38;101364.06;;;27.32;36.03
64516;BME280;50891;37.380;-122.076;2022-10-31T04:39:04;101366.16;;;27.30;36.03
64516;BME280;50891;37.380;-122.076;2022-10-31T04:41:30;101375.91;;;27.31;35.92
64516;BME280;50891;37.380;-122.076;2022-10-31T04:43:56;101374.47;;;27.28;35.95
64516;BME280;50891;37.380;-122.076;2022-10-31T04:46:22;101374.47;;;27.28;36.05
64516;BME280;50891;37.380;-122.076;2022-10-31T04:48:49;101371.78;;;27.28;36.16
64516;BME280;50891;37.380;-122.076;2022-10-31T04:51:15;101385.75;;;27.25;36.25
64516;BME280;50891;37.380;-122.076;2022-10-31T04:53:41;101380.19;;;27.20;35.85
64516;BME280;50891;37.380;-122.076;2022-10-31T04:56:07;101372.94;;;27.21;36.04
64516;BME280;50891;37.380;-122.076;2022-10-31T04:58:33;101373.31;;;27.18;36.15
64516;BME280;50891;37.380;-122.076;2022-10-31T05:00:59;101376.72;;;27.13;36.26
64516;BME280;50891;37.380;-122.076;2022-10-31T05:03:25;101375.06;;;27.12;36.29
64516;BME280;50891;37.380;-122.076;2022-10-31T05:05:51;101376.56;;;27.08;36.35
64516;BME280;50891;37.380;-122.076;2022-10-31T05:08:18;101372.66;;;27.04;36.47
64516;BME280;50891;37.380;-122.076;2022-10-31T05:10:44;101369.97;;;27.04;36.15
64516;BME280;50891;37.380;-122.076;2022-10-31T05:13:10;101367.28;;;27.04;36.21
64516;BME280;50891;37.380;-122.076;2022-10-31T05:15:36;101377.03;;;27.05;36.25
64516;BME280;50891;37.380;-122.076;2022-10-31T05:18:02;101374.34;;;27.05;36.12
64516;BME280;50891;37.380;-122.076;2022-10-31T05:20:29;101379.72;;;27.05;36.10
64516;BME280;50891;37.380;-122.076;2022-10-31T05:22:57;101383.47;;;27.04;36.25
64516;BME280;50891;37.380;-122.076;2022-10-31T05:25:25;101383.13;;;27.00;36.25
64516;BME280;50891;37.380;-122.076;2022-10-31T05:27:52;101388.38;;;26.95;36.27
64516;BME280;50891;37.380;-122.076;2022-10-31T05:30:22;101395.63;;;26.95;36.02
64516;BME280;50891;37.380;-122.076;2022-10-31T05:32:50;101392.72;;;26.96;35.99
64516;BME280;50891;37.380;-122.076;2022-10-31T05:35:20;101392.91;;;26.95;35.96
64516;BME280;50891;37.380;-122.076;2022-10-31T05:37:47;101393.97;;;26.94;36.00
64516;BME280;50891;37.380;-122.076;2022-10-31T05:40:15;101397.16;;;26.90;35.91
64516;BME280;50891;37.380;-122.076;2022-10-31T05:42:43;101393.84;;;26.88;36.00
64516;BME280;50891;37.380;-122.076;2022-10-31T05:45:11;101392.19;;;26.87;36.04
64516;BME280;50891;37.380;-122.076;2022-10-31T05:47:38;101389.47;;;26.87;35.94
64516;BME280;50891;37.380;-122.076;2022-10-31T05:50:05;101387.03;;;26.86;35.83
64516;BME280;50891;37.380;-122.076;2022-10-31T05:52:32;101383.13;;;26.82;35.82
64516;BME280;50891;37.380;-122.076;2022-10-31T05:54:58;101386.03;;;26.80;35.88
64516;BME280;50891;37.380;-122.076;2022-10-31T05:57:24;101385.88;;;26.75;35.80
64516;BME280;50891;37.380;-122.076;2022-10-31T05:59:51;101391.13;;;26.70;35.76
64516;BME280;50891;37.380;-122.076;2022-10-31T06:02:19;101382.88;;;26.65;35.73
64516;BME280;50891;37.380;-122.076;2022-10-31T06:04:46;101381.22;;;26.64;35.99
64516;BME280;50891;37.380;-122.076;2022-10-31T06:07:12;101381.22;;;26.64;36.09
64516;BME280;50891;37.380;-122.076;2022-10-31T06:09:38;101382.28;;;26.63;35.97
64516;BME280;50891;37.380;-122.076;2022-10-31T06:12:04;101386.47;;;26.59;35.83
64516;BME280;50891;37.380;-122.076;2022-10-31T06:14:31;101386.47;;;26.59;35.98
64516;BME280;50891;37.380;-122.076;2022-10-31T06:16:57;101386.47;;;26.59;36.00
64516;BME280;50891;37.380;-122.076;2022-10-31T06:19:23;101387.53;;;26.58;35.96
64516;BME280;50891;37.380;-122.076;2022-10-31T06:21:49;101394.78;;;26.57;35.84
64516;BME280;50891;37.380;-122.076;2022-10-31T06:24:15;101392.31;;;26.56;35.95
64516;BME280;50891;37.380;-122.076;2022-10-31T06:26:41;101383.41;;;26.55;35.85
64516;BME280;50891;37.380;-122.076;2022-10-31T06:29:08;101382.78;;;26.53;35.90
64516;BME280;50891;37.380;-122.076;2022-10-31T06:31:34;101384.03;;;26.51;35.83
64516;BME280;50891;37.380;-122.076;2022-10-31T06:34:00;101384.03;;;26.51;35.58
64516;BME280;50891;37.380;-122.076;2022-10-31T06:36:26;101373.25;;;26.51;35.63
64516;BME280;50891;37.380;-122.076;2022-10-31T06:38:52;101367.00;;;26.50;35.41
64516;BME280;50891;37.380;-122.076;2022-10-31T06:41:18;101376.63;;;26.46;35.28
64516;BME280;50891;37.380;-122.076;2022-10-31T06:43:48;101372.50;;;26.43;35.50
64516;BME280;50891;37.380;-122.076;2022-10-31T06:46:14;101363.34;;;26.44;35.34
64516;BME280;50891;37.380;-122.076;2022-10-31T06:48:41;101356.72;;;26.40;35.31
64516;BME280;50891;37.380;-122.076;2022-10-31T06:51:07;101367.97;;;26.37;35.37
64516;BME280;50891;37.380;-122.076;2022-10-31T06:53:34;101361.31;;;26.40;35.16
64516;BME280;50891;37.380;-122.076;2022-10-31T06:56:00;101359.81;;;26.44;35.00
64516;BME280;50891;37.380;-122.076;2022-10-31T06:58:26;101359.16;;;26.48;35.25
64516;BME280;50891;37.380;-122.076;2022-10-31T07:00:52;101353.09;;;26.53;35.34
64516;BME280;50891;37.380;-122.076;2022-10-31T07:03:18;101359.50;;;26.59;35.47
64516;BME280;50891;37.380;-122.076;2022-10-31T07:05:45;101355.31;;;26.63;35.40
64516;BME280;50891;37.380;-122.076;2022-10-31T07:08:13;101355.75;;;26.60;35.43
64516;BME280;50891;37.380;-122.076;2022-10-31T07:10:41;101359.88;;;26.62;35.55
64516;BME280;50891;37.380;-122.076;2022-10-31T07:13:12;101361.72;;;26.62;35.73
64516;BME280;50891;37.380;-122.076;2022-10-31T07:15:40;101347.22;;;26.63;35.83
64516;BME280;50891;37.380;-122.076;2022-10-31T07:18:08;101347.22;;;26.63;35.74
64516;BME280;50891;37.380;-122.076;2022-10-31T07:20:35;101339.13;;;26.63;35.80
64516;BME280;50891;37.380;-122.076;2022-10-31T07:23:01;101346.59;;;26.61;35.88
64516;BME280;50891;37.380;-122.076;2022-10-31T07:25:28;101350.38;;;26.60;35.98
64516;BME280;50891;37.380;-122.076;2022-10-31T07:27:54;101353.28;;;26.58;35.85
64516;BME280;50891;37.380;-122.076;2022-10-31T07:30:21;101351.59;;;26.57;36.13
64516;BME280;50891;37.380;-122.076;2022-10-31T07:32:50;101344.78;;;26.55;36.19
64516;BME280;50891;37.380;-122.076;2022-10-31T07:35:18;101351.22;;;26.54;36.26
64516;BME280;50891;37.380;-122.076;2022-10-31T07:37:45;101341.69;;;26.51;36.20
64516;BME280;50891;37.380;-122.076;2022-10-31T07:40:11;101349.19;;;26.49;36.34
64516;BME280;50891;37.380;-122.076;2022-10-31T07:42:42;101355.84;;;26.46;36.37
64516;BME280;50891;37.380;-122.076;2022-10-31T07:45:11;101353.81;;;26.42;36.45
64516;BME280;50891;37.380;-122.076;2022-10-31T07:47:42;101349.69;;;26.39;36.49
64516;BME280;50891;37.380;-122.076;2022-10-31T07:50:10;101348.50;;;26.35;36.41
64516;BME280;50891;37.380;-122.076;2022-10-31T07:52:36;101347.28;;;26.31;36.40
64516;BME280;50891;37.380;-122.076;2022-10-31T07:55:03;101335.06;;;26.28;36.66
64516;BME280;50891;37.380;-122.076;2022-10-31T07:57:29;101329.88;;;26.27;36.53
64516;BME280;50891;37.380;-122.076;2022-10-31T07:59:56;101327.44;;;26.25;36.56
64516;BME280;50891;37.380;-122.076;2022-10-31T08:02:22;101317.75;;;26.18;36.49
64516;BME280;50891;37.380;-122.076;2022-10-31T08:04:48;101320.63;;;26.23;36.54
64516;BME280;50891;37.380;-122.076;2022-10-31T08:07:15;101328.09;;;26.21;36.62
64516;BME280;50891;37.380;-122.076;2022-10-31T08:09:41;101312.59;;;26.16;36.77
64516;BME280;50891;37.380;-122.076;2022-10-31T08:12:08;101319.00;;;26.15;36.95
64516;BME280;50891;37.380;-122.076;2022-10-31T08:14:34;101316.56;;;26.14;37.05
64516;BME280;50891;37.380;-122.076;2022-10-31T08:17:00;101315.34;;;26.10;36.96
64516;BME280;50891;37.380;-122.076;2022-10-31T08:19:26;101311.00;;;26.09;36.86
64516;BME280;50891;37.380;-122.076;2022-10-31T08:21:53;101325.50;;;26.07;37.07
64516;BME280;50891;37.380;-122.076;2022-10-31T08:24:23;101327.59;;;26.05;36.96
64516;BME280;50891;37.380;-122.076;2022-10-31T08:26:50;101324.28;;;26.03;37.00
64516;BME280;50891;37.380;-122.076;2022-10-31T08:29:17;101318.91;;;26.03;37.02
64516;BME280;50891;37.380;-122.076;2022-10-31T08:31:43;101307.31;;;26.03;36.97
64516;BME280;50891;37.380;-122.076;2022-10-31T08:34:09;101302.13;;;26.01;36.89
64516;BME280;50891;37.380;-122.076;2022-10-31T08:36:36;101296.56;;;25.96;36.94
64516;BME280;50891;37.380;-122.076;2022-10-31T08:39:02;101299.50;;;25.95;36.75
64516;BME280;50891;37.380;-122.076;2022-10-31T08:41:29;101299.13;;;25.91;36.94
64516;BME280;50891;37.380;-122.076;2022-10-31T08:43:56;101303.91;;;25.89;36.89
64516;BME280;50891;37.380;-122.076;2022-10-31T08:46:22;101300.81;;;25.85;36.91
64516;BME280;50891;37.380;-122.076;2022-10-31T08:48:49;101302.06;;;25.83;37.05
64516;BME280;50891;37.380;-122.076;2022-10-31T08:51:15;101293.38;;;25.81;36.93
64516;BME280;50891;37.380;-122.076;2022-10-31T08:53:41;101298.78;;;25.81;36.93
64516;BME280;50891;37.380;-122.076;2022-10-31T08:56:07;101294.41;;;25.80;36.94
64516;BME280;50891;37.380;-122.076;2022-10-31T08:58:33;101286.97;;;25.75;37.00
64516;BME280;50891;37.380;-122.076;2022-10-31T09:01:01;101298.00;;;25.74;36.95
64516;BME280;50891;37.380;-122.076;2022-10-31T09:03:29;101295.97;;;25.69;37.10
64516;BME280;50891;37.380;-122.076;2022-10-31T09:06:01;101302.38;;;25.68;37.14
64516;BME280;50891;37.380;-122.076;2022-10-31T09:08:32;101293.94;;;25.64;37.13
64516;BME280;50891;37.380;-122.076;2022-10-31T09:10:59;101282.53;;;25.62;37.26
64516;BME280;50891;37.380;-122.076;2022-10-31T09:13:25;101268.66;;;25.59;37.18
64516;BME280;50891;37.380;-122.076;2022-10-31T09:15:52;101281.31;;;25.58;37.17
64516;BME280;50891;37.380;-122.076;2022-10-31T09:18:20;101293.97;;;25.58;37.28
64516;BME280;50891;37.380;-122.076;2022-10-31T09:20:48;101298.75;;;25.56;37.25
64516;BME280;50891;37.380;-122.076;2022-10-31T09:23:19;101282.19;;;25.52;37.26
64516;BME280;50891;37.380;-122.076;2022-10-31T09:25:47;101265.44;;;25.50;37.32
64516;BME280;50891;37.380;-122.076;2022-10-31T09:28:16;101269.16;;;25.49;37.40
64516;BME280;50891;37.380;-122.076;2022-10-31T09:30:46;101269.16;;;25.49;37.27
64516;BME280;50891;37.380;-122.076;2022-10-31T09:33:13;101271.25;;;25.47;37.35
64516;BME280;50891;37.380;-122.076;2022-10-31T09:35:40;101265.25;;;25.45;37.21
64516;BME280;50891;37.380;-122.076;2022-10-31T09:38:10;101249.31;;;25.43;37.08
64516;BME280;50891;37.380;-122.076;2022-10-31T09:40:41;101251.16;;;25.43;37.10
64516;BME280;50891;37.380;-122.076;2022-10-31T09:51:09;101248.97;;;25.33;37.19
64516;BME280;50891;37.380;-122.076;2022-10-31T09:53:54;101254.59;;;25.32;37.00
64516;BME280;50891;37.380;-122.076;2022-10-31T09:56:23;101249.84;;;25.27;36.99
64516;BME280;50891;37.380;-122.076;2022-10-31T09:58:56;101250.28;;;25.24;36.29
64516;BME280;50891;37.380;-122.076;2022-10-31T10:04:12;101239.50;;;25.17;36.84
64516;BME280;50891;37.380;-122.076;2022-10-31T10:06:45;101234.56;;;25.14;36.85
64516;BME280;50891;37.380;-122.076;2022-10-31T10:09:12;101232.53;;;25.10;36.93
64516;BME280;50891;37.380;-122.076;2022-10-31T10:19:59;101229.66;;;25.05;37.39
64516;BME280;50891;37.380;-122.076;2022-10-31T10:25:32;101212.69;;;25.04;37.52
64516;BME280;50891;37.380;-122.076;2022-10-31T10:28:15;101205.03;;;25.01;37.15
64516;BME280;50891;37.380;-122.076;2022-10-31T10:30:54;101199.66;;;25.01;37.16
64516;BME280;50891;37.380;-122.076;2022-10-31T10:33:24;101205.69;;;24.96;36.83
64516;BME280;50891;37.380;-122.076;2022-10-31T10:36:04;101192.03;;;24.98;36.90
64516;BME280;50891;37.380;-122.076;2022-10-31T10:38:58;101204.06;;;24.95;37.13
64516;BME280;50891;37.380;-122.076;2022-10-31T10:41:23;101192.28;;;24.90;36.83
64516;BME280;50891;37.380;-122.076;2022-10-31T10:43:53;101190.41;;;24.90;36.92
64516;BME280;50891;37.380;-122.076;2022-10-31T10:52:02;101190.47;;;24.84;36.79
64516;BME280;50891;37.380;-122.076;2022-10-31T11:00:18;101162.59;;;24.71;36.40
64516;BME280;50891;37.380;-122.076;2022-10-31T11:02:44;101179.75;;;24.70;36.97
64516;BME280;50891;37.380;-122.076;2022-10-31T11:05:36;101169.44;;;24.67;36.77
64516;BME280;50891;37.380;-122.076;2022-10-31T11:08:04;101171.31;;;24.67;37.24
64516;BME280;50891;37.380;-122.076;2022-10-31T11:10:31;101169.88;;;24.64;37.13
64516;BME280;50891;37.380;-122.076;2022-10-31T11:16:12;101174.84;;;24.60;37.04
64516;BME280;50891;37.380;-122.076;2022-10-31T11:18:45;101167.44;;;24.56;36.96
64516;BME280;50891;37.380;-122.076;2022-10-31T11:21:30;101158.34;;;24.57;36.79
64516;BME280;50891;37.380;-122.076;2022-10-31T11:26:38;101160.81;;;24.52;36.29
64516;BME280;50891;37.380;-122.076;2022-10-31T11:29:10;101145.53;;;24.46;36.34
64516;BME280;50891;37.380;-122.076;2022-10-31T11:31:38;101149.25;;;24.45;36.05
64516;BME280;50891;37.380;-122.076;2022-10-31T11:34:12;101153.81;;;24.44;36.42
64516;BME280;50891;37.380;-122.076;2022-10-31T11:36:43;101155.06;;;24.42;36.89
64516;BME280;50891;37.380;-122.076;2022-10-31T11:39:18;101153.41;;;24.40;36.95
64516;BME280;50891;37.380;-122.076;2022-10-31T11:41:45;101162.50;;;24.39;37.00
64516;BME280;50891;37.380;-122.076;2022-10-31T11:44:19;101162.50;;;24.39;37.13
64516;BME280;50891;37.380;-122.076;2022-10-31T11:47:05;101155.69;;;24.37;36.55
64516;BME280;50891;37.380;-122.076;2022-10-31T11:49:35;101153.66;;;24.32;36.07
64516;BME280;50891;37.380;-122.076;2022-10-31T11:52:12;101152.41;;;24.28;35.82
64516;BME280;50891;37.380;-122.076;2022-10-31T11:54:49;101151.19;;;24.24;35.71
64516;BME280;50891;37.380;-122.076;2022-10-31T11:57:30;101159.47;;;24.23;35.72
64516;BME280;50891;37.380;-122.076;2022-10-31T12:00:02;101151.25;;;24.17;35.38
64516;BME280;50891;37.380;-122.076;2022-10-31T12:02:29;101151.66;;;24.14;35.46
64516;BME280;50891;37.380;-122.076;2022-10-31T12:05:22;101148.56;;;24.11;35.45
64516;BME280;50891;37.380;-122.076;2022-10-31T12:07:50;101151.47;;;24.09;35.24
64516;BME280;50891;37.380;-122.076;2022-10-31T12:10:21;101140.91;;;24.08;35.55
64516;BME280;50891;37.380;-122.076;2022-10-31T12:13:15;101136.78;;;24.05;35.70
64516;BME280;50891;37.380;-122.076;2022-10-31T12:15:51;101143.22;;;24.04;35.58
64516;BME280;50891;37.380;-122.076;2022-10-31T12:32:20;101160.59;;;23.95;35.28
64516;BME280;50891;37.380;-122.076;2022-10-31T12:35:08;101157.50;;;23.91;35.46
64516;BME280;50891;37.380;-122.076;2022-10-31T12:40:37;101168.47;;;23.90;35.68
64516;BME280;50891;37.380;-122.076;2022-10-31T12:43:16;101161.88;;;23.86;35.35
64516;BME280;50891;37.380;-122.076;2022-10-31T12:51:18;101156.94;;;23.76;34.93
64516;BME280;50891;37.380;-122.076;2022-10-31T12:56:38;101159.38;;;23.71;35.02
64516;BME280;50891;37.380;-122.076;2022-10-31T12:59:44;101149.03;;;23.68;35.00
64516;BME280;50891;37.380;-122.076;2022-10-31T13:05:27;101153.19;;;23.64;35.09
64516;BME280;50891;37.380;-122.076;2022-10-31T13:08:28;101150.72;;;23.62;35.10
64516;BME280;50891;37.380;-122.076;2022-10-31T13:11:05;101155.66;;;23.59;35.25
64516;BME280;50891;37.380;-122.076;2022-10-31T13:13:43;101156.50;;;23.59;35.35
64516;BME280;50891;37.380;-122.076;2022-10-31T13:16:20;101155.66;;;23.59;35.36
64516;BME280;50891;37.380;-122.076;2022-10-31T13:21:31;101138.34;;;23.54;35.43
64516;BME280;50891;37.380;-122.076;2022-10-31T13:24:04;101145.78;;;23.52;35.45
64516;BME280;50891;37.380;-122.076;2022-10-31T13:26:38;101142.03;;;23.53;35.38
64516;BME280;50891;37.380;-122.076;2022-10-31T13:31:30;101153.22;;;23.50;35.27
64516;BME280;50891;37.380;-122.076;2022-10-31T13:34:03;101152.78;;;23.47;35.01
64516;BME280;50891;37.380;-122.076;2022-10-31T13:44:36;101152.19;;;23.38;34.90
64516;BME280;50891;37.380;-122.076;2022-10-31T13:47:25;101147.84;;;23.37;35.23
64516;BME280;50891;37.380;-122.076;2022-10-31T13:50:03;101132.97;;;23.34;34.87
64516;BME280;50891;37.380;-122.076;2022-10-31T13:52:30;101135.22;;;23.31;34.83
64516;BME280;50891;37.380;-122.076;2022-10-31T13:54:57;101138.16;;;23.29;34.87
64516;BME280;50891;37.380;-122.076;2022-10-31T13:57:31;101140.41;;;23.26;34.70
64516;BME280;50891;37.380;-122.076;2022-10-31T14:00:02;101131.53;;;23.25;34.77
64516;BME280;50891;37.380;-122.076;2022-10-31T14:02:31;101120.16;;;23.23;35.23
64516;BME280;50891;37.380;-122.076;2022-10-31T14:07:31;101117.09;;;23.20;35.27
64516;BME280;50891;37.380;-122.076;2022-10-31T14:10:16;101116.06;;;23.21;34.97
64516;BME280;50891;37.380;-122.076;2022-10-31T14:12:47;101106.38;;;23.20;35.02
64516;BME280;50891;37.380;-122.076;2022-10-31T14:15:24;101109.03;;;23.20;35.04
64516;BME280;50891;37.380;-122.076;2022-10-31T14:18:00;101118.94;;;23.19;35.05
64516;BME280;50891;37.380;-122.076;2022-10-31T14:23:31;101127.22;;;23.18;35.25
64516;BME280;50891;37.380;-122.076;2022-10-31T14:26:29;101120.59;;;23.13;34.78
64516;BME280;50891;37.380;-122.076;2022-10-31T14:28:58;101127.81;;;23.13;35.24
64516;BME280;50891;37.380;-122.076;2022-10-31T14:31:37;101138.34;;;23.14;35.09